Time;durP1;ratioP1;P1;durP2;ratioP2;P2;SDS_P1;SDS_P2;PMS_P1;PMS_P2;Temp;Humidity;BMP_temperature;BMP_pressure;BME280_temperature;BME280_humidity;BME280_pressure;Samples;Min_cycle;Max_cycle;Signal;HPM_P1;HPM_P2
2022/09/27 04:02:24;;;;;;;2.40;2.28;;;10.80;99.90;;;;;;5062402;23;20241;-70
2022/09/27 04:04:51;;;;;;;1.90;1.90;;;10.80;99.90;;;;;;4974777;28;20217;-69
2022/09/27 04:07:18;;;;;;;1.83;1.73;;;10.80;99.90;;;;;;4976135;28;20663;-69
2022/09/27 04:09:45;;;;;;;1.90;1.90;;;10.80;99.90;;;;;;4974466;28;20208;-69
2022/09/27 04:12:12;;;;;;;1.95;1.88;;;10.90;99.90;;;;;;4965067;28;20283;-69
2022/09/27 04:14:39;;;;;;;1.73;1.70;;;10.80;99.90;;;;;;4969369;28;20210;-69
2022/09/27 04:17:06;;;;;;;2.40;2.30;;;10.90;99.90;;;;;;4968605;28;20237;-71
2022/09/27 04:19:35;;;;;;;2.90;2.70;;;10.90;99.90;;;;;;4971318;28;20219;-71
2022/09/27 04:22:02;;;;;;;1.60;1.50;;;10.80;99.90;;;;;;4969707;28;20231;-71
2022/09/27 04:24:31;;;;;;;1.80;1.70;;;10.80;99.90;;;;;;4968786;28;20216;-70
2022/09/27 04:26:58;;;;;;;1.60;1.60;;;10.80;99.90;;;;;;4970898;28;20210;-70
2022/09/27 04:29:25;;;;;;;1.48;1.38;;;10.80;99.90;;;;;;4958753;28;20213;-70
2022/09/27 04:31:51;;;;;;;1.75;1.75;;;10.90;99.90;;;;;;4958514;28;20230;-71
2022/09/27 04:36:25;;;;;;;2.20;2.08;;;10.90;99.90;;;;;;4968714;28;20577;-70
2022/09/27 04:37:05;;;;;;;2.70;1.52;;;10.90;99.90;;;;;;4967909;28;20217;-70
2022/09/27 04:39:32;;;;;;;1.70;1.60;;;10.90;99.90;;;;;;4973734;28;20230;-71
2022/09/27 04:41:59;;;;;;;2.42;2.33;;;10.90;99.90;;;;;;4961261;28;20243;-71
2022/09/27 04:44:25;;;;;;;2.40;2.30;;;10.90;99.90;;;;;;4969380;28;20213;-71
2022/09/27 04:46:52;;;;;;;3.13;3.03;;;10.90;99.90;;;;;;4967856;28;20216;-70
2022/09/27 04:49:19;;;;;;;2.88;2.67;;;10.90;99.90;;;;;;4969377;28;20579;-71
2022/09/27 04:51:45;;;;;;;2.33;2.08;;;10.90;99.90;;;;;;4960347;28;20608;-71
2022/09/27 04:54:13;;;;;;;3.10;2.30;;;10.90;99.90;;;;;;4968355;28;20559;-71
2022/09/27 04:56:41;;;;;;;2.92;2.70;;;10.90;99.90;;;;;;4970257;28;20218;-71
2022/09/27 04:59:09;;;;;;;2.47;2.28;;;10.90;99.90;;;;;;4965062;28;20628;-71
2022/09/27 05:01:36;;;;;;;2.30;2.22;;;10.90;99.90;;;;;;4966333;28;20252;-70
2022/09/27 05:04:02;;;;;;;1.65;1.65;;;10.90;99.90;;;;;;4966782;28;20211;-71
2022/09/27 05:06:29;;;;;;;4.32;2.78;;;10.90;99.90;;;;;;4969300;28;20206;-69
2022/09/27 05:08:57;;;;;;;2.40;2.40;;;10.90;99.90;;;;;;4962211;28;20673;-69
2022/09/27 05:11:25;;;;;;;3.35;2.90;;;10.90;99.90;;;;;;4969663;28;20314;-70
2022/09/27 05:13:52;;;;;;;3.08;2.75;;;10.90;99.90;;;;;;4958362;28;20227;-70
2022/09/27 05:16:18;;;;;;;2.40;2.30;;;11.00;99.90;;;;;;4967218;28;20234;-70
2022/09/27 05:18:45;;;;;;;2.63;2.53;;;10.90;99.90;;;;;;4964799;28;20301;-70
2022/09/27 05:21:12;;;;;;;4.57;3.28;;;10.90;99.90;;;;;;4967623;28;20235;-69
2022/09/27 05:23:39;;;;;;;2.72;2.60;;;10.90;99.90;;;;;;4967631;28;20291;-70
2022/09/27 05:26:07;;;;;;;3.38;3.17;;;10.90;99.90;;;;;;4970237;28;20599;-70
2022/09/27 05:28:35;;;;;;;3.33;3.03;;;10.90;99.90;;;;;;4971001;28;20575;-70
2022/09/27 05:31:02;;;;;;;3.30;3.10;;;10.90;99.90;;;;;;4970406;28;20227;-70
2022/09/27 05:33:30;;;;;;;2.53;2.35;;;11.00;99.90;;;;;;4960466;28;20265;-70
2022/09/27 05:35:57;;;;;;;2.80;2.60;;;11.00;99.90;;;;;;4967211;28;20222;-70
2022/09/27 05:38:25;;;;;;;3.05;2.85;;;11.00;99.90;;;;;;4967758;28;20210;-70
2022/09/27 05:40:51;;;;;;;2.60;2.50;;;11.00;99.90;;;;;;4972709;28;20226;-70
2022/09/27 05:43:18;;;;;;;3.00;2.80;;;11.00;99.90;;;;;;4963731;28;20555;-70
2022/09/27 05:45:47;;;;;;;5.85;2.35;;;11.00;99.90;;;;;;4972514;28;20212;-69
2022/09/27 05:48:14;;;;;;;2.40;2.20;;;11.00;99.90;;;;;;4962327;28;20217;-69
2022/09/27 05:50:41;;;;;;;3.28;2.80;;;11.00;99.90;;;;;;4968312;28;20236;-69
2022/09/27 05:53:09;;;;;;;2.35;2.25;;;11.00;99.90;;;;;;4962788;28;20206;-70
2022/09/27 05:55:36;;;;;;;2.40;2.15;;;11.00;99.90;;;;;;4969947;28;20215;-70
2022/09/27 05:58:04;;;;;;;2.78;2.67;;;11.00;99.90;;;;;;4957578;28;20223;-69
2022/09/27 06:00:31;;;;;;;2.33;2.20;;;11.10;99.90;;;;;;4965636;28;20592;-70
2022/09/27 06:03:01;;;;;;;2.80;2.65;;;11.10;99.90;;;;;;4964029;28;20886;-70
2022/09/27 06:05:35;;;;;;;2.45;2.35;;;11.10;99.90;;;;;;4961189;28;20221;-69
2022/09/27 06:08:04;;;;;;;4.05;2.92;;;11.10;99.90;;;;;;4956708;28;20222;-70
2022/09/27 06:10:31;;;;;;;3.03;2.75;;;11.10;99.90;;;;;;4961836;28;20336;-70
2022/09/27 06:13:02;;;;;;;4.45;2.47;;;11.10;99.90;;;;;;4959539;28;20213;-70
2022/09/27 06:15:28;;;;;;;2.28;2.17;;;11.10;99.90;;;;;;4960411;28;20203;-70
2022/09/27 06:17:55;;;;;;;2.70;1.58;;;11.10;99.90;;;;;;4965305;28;20215;-69
2022/09/27 06:20:23;;;;;;;5.18;2.55;;;11.10;99.90;;;;;;4967753;28;20223;-70
2022/09/27 06:22:52;;;;;;;1.92;1.90;;;11.10;99.90;;;;;;4962235;28;20238;-70
2022/09/27 06:25:20;;;;;;;1.33;1.23;;;11.10;99.90;;;;;;4957428;28;20207;-72
2022/09/27 06:27:46;;;;;;;3.78;3.47;;;11.10;99.90;;;;;;4966844;28;20285;-72
2022/09/27 06:30:13;;;;;;;2.72;2.50;;;11.10;99.90;;;;;;4971819;28;20217;-72
2022/09/27 06:32:40;;;;;;;2.80;2.60;;;11.20;99.90;;;;;;4958732;28;20208;-71
2022/09/27 06:35:07;;;;;;;2.58;2.20;;;11.20;99.90;;;;;;4966572;28;20238;-71
2022/09/27 06:37:35;;;;;;;1.88;1.77;;;11.20;99.90;;;;;;4968179;28;20218;-71
2022/09/27 06:40:02;;;;;;;1.35;1.33;;;11.20;99.90;;;;;;4966449;28;20218;-71
2022/09/27 06:42:29;;;;;;;2.33;2.22;;;11.20;99.90;;;;;;4966535;28;20286;-71
2022/09/27 06:44:56;;;;;;;0.98;0.93;;;11.20;99.90;;;;;;4961525;28;20210;-71
2022/09/27 06:47:24;;;;;;;1.98;1.88;;;11.20;99.90;;;;;;4961470;28;20282;-71
2022/09/27 06:49:50;;;;;;;2.50;1.55;;;11.20;99.90;;;;;;4956657;28;20217;-71
2022/09/27 06:52:17;;;;;;;1.70;1.60;;;11.20;99.90;;;;;;4961630;28;20355;-71
2022/09/27 06:54:45;;;;;;;2.08;2.08;;;11.20;99.90;;;;;;4961491;28;20217;-71
2022/09/27 07:00:22;;;;;;;2.63;2.47;;;11.20;99.90;;;;;;4963814;28;20216;-71
2022/09/27 07:02:59;;;;;;;3.30;3.10;;;11.30;99.90;;;;;;4948279;28;20240;-70
2022/09/27 07:05:27;;;;;;;4.00;3.05;;;11.30;99.90;;;;;;4962820;28;20695;-70
2022/09/27 07:07:56;;;;;;;3.03;2.83;;;11.30;99.90;;;;;;4962494;28;20211;-71
2022/09/27 07:10:26;;;;;;;2.80;2.20;;;11.20;99.90;;;;;;4958934;28;20208;-71
2022/09/27 07:12:53;;;;;;;2.08;1.98;;;11.20;99.90;;;;;;4962439;28;20202;-71
2022/09/27 07:15:21;;;;;;;2.00;1.70;;;11.20;99.90;;;;;;4967365;28;20208;-71
2022/09/27 07:17:47;;;;;;;3.50;3.20;;;11.30;99.90;;;;;;4957090;28;20565;-70
2022/09/27 07:20:14;;;;;;;2.03;1.92;;;11.30;99.90;;;;;;4965344;28;20213;-70
2022/09/27 07:22:42;;;;;;;2.65;2.55;;;11.30;99.90;;;;;;4958498;28;20257;-70
2022/09/27 07:25:09;;;;;;;3.38;3.17;;;11.40;99.90;;;;;;4962757;28;20227;-71
2022/09/27 07:27:40;;;;;;;2.85;2.63;;;11.40;99.90;;;;;;4969019;28;20217;-71
2022/09/27 07:30:07;;;;;;;1.77;1.67;;;11.50;99.90;;;;;;4967066;28;20341;-70
2022/09/27 07:32:36;;;;;;;2.17;2.08;;;11.60;99.90;;;;;;4969932;28;20230;-71
2022/09/27 07:35:04;;;;;;;6.70;1.85;;;11.70;99.90;;;;;;4969158;28;20276;-70
2022/09/27 07:37:32;;;;;;;1.50;1.40;;;11.80;99.90;;;;;;4958723;28;20270;-69
2022/09/27 07:39:59;;;;;;;2.40;2.30;;;11.90;99.90;;;;;;4968497;28;20261;-74
2022/09/27 07:42:27;;;;;;;0.85;0.85;;;11.90;99.90;;;;;;4965287;28;20235;-70
2022/09/27 07:44:55;;;;;;;1.55;1.45;;;11.90;99.90;;;;;;4966448;28;21094;-70
2022/09/27 07:47:23;;;;;;;1.02;1.02;;;11.90;99.90;;;;;;4973688;28;20205;-70
2022/09/27 07:49:50;;;;;;;1.48;1.42;;;12.00;99.90;;;;;;4972623;28;20210;-71
2022/09/27 07:52:17;;;;;;;1.58;1.58;;;12.00;99.90;;;;;;4971614;28;20697;-71
2022/09/27 07:54:44;;;;;;;0.75;0.75;;;12.10;99.90;;;;;;4964800;28;20206;-70
2022/09/27 07:57:11;;;;;;;1.70;1.60;;;12.10;99.90;;;;;;4969542;28;20214;-71
2022/09/27 07:59:37;;;;;;;1.25;1.20;;;12.20;99.90;;;;;;4960467;28;20572;-71
2022/09/27 08:02:06;;;;;;;1.50;1.40;;;;;;;;;;4966302;28;20606;-70
2022/09/27 08:04:32;;;;;;;1.07;1.07;;;12.40;99.90;;;;;;4969202;28;20828;-70
2022/09/27 08:06:59;;;;;;;1.03;0.93;;;12.40;99.90;;;;;;4963703;28;20480;-71
2022/09/27 08:09:26;;;;;;;0.70;0.70;;;12.40;99.90;;;;;;4966425;28;20473;-71
2022/09/27 08:11:56;;;;;;;0.50;0.50;;;12.40;99.90;;;;;;4966269;28;20878;-71
2022/09/27 08:14:23;;;;;;;0.73;0.73;;;12.40;99.90;;;;;;4968594;28;20595;-71
2022/09/27 08:16:50;;;;;;;0.40;0.40;;;12.40;99.90;;;;;;4966961;28;20216;-71
2022/09/27 08:19:18;;;;;;;0.73;0.73;;;12.40;99.90;;;;;;4972039;28;20479;-71
2022/09/27 08:21:45;;;;;;;0.52;0.52;;;12.40;99.90;;;;;;4965765;28;20498;-72
2022/09/27 08:24:12;;;;;;;0.77;0.77;;;12.30;99.90;;;;;;4971809;28;20301;-71
2022/09/27 08:26:38;;;;;;;0.63;0.63;;;12.40;99.90;;;;;;4966817;28;20927;-72
2022/09/27 08:29:11;;;;;;;0.60;0.60;;;12.40;99.90;;;;;;4969940;28;20477;-71
2022/09/27 08:31:38;;;;;;;0.53;0.53;;;12.40;99.90;;;;;;4967973;28;20496;-71
2022/09/27 08:34:05;;;;;;;0.40;0.40;;;12.40;99.90;;;;;;4965874;28;20469;-72
2022/09/27 08:36:34;;;;;;;0.70;0.70;;;12.30;99.90;;;;;;4966029;28;20218;-71
2022/09/27 08:39:02;;;;;;;0.70;0.70;;;12.30;99.90;;;;;;4965132;28;20464;-72
2022/09/27 08:41:37;;;;;;;1.50;0.47;;;12.40;99.90;;;;;;4965508;28;20226;-71
2022/09/27 08:44:17;;;;;;;0.90;0.90;;;12.30;99.90;;;;;;4959249;28;20471;-71
2022/09/27 08:46:53;;;;;;;0.70;0.70;;;12.20;99.90;;;;;;4966783;28;20458;-71
2022/09/27 08:49:26;;;;;;;0.80;0.80;;;12.20;99.90;;;;;;4962194;28;20505;-71
2022/09/27 08:51:55;;;;;;;0.30;0.30;;;12.20;99.90;;;;;;4971318;28;20486;-71
2022/09/27 08:54:25;;;;;;;0.63;0.63;;;12.30;99.90;;;;;;4965655;28;20239;-71
2022/09/27 08:56:53;;;;;;;0.70;0.70;;;12.30;99.90;;;;;;4967675;28;20249;-70
2022/09/27 08:59:25;;;;;;;0.70;0.70;;;12.20;99.90;;;;;;4970711;28;20214;-71
2022/09/27 09:01:53;;;;;;;0.40;0.40;;;12.20;99.90;;;;;;4971238;28;20503;-71
2022/09/27 09:04:28;;;;;;;0.35;0.35;;;12.20;99.90;;;;;;4962741;28;20583;-71
2022/09/27 09:07:08;;;;;;;0.80;0.80;;;12.10;99.90;;;;;;4973825;28;20206;-71
2022/09/27 09:09:43;;;;;;;0.90;0.90;;;12.10;99.90;;;;;;4963278;28;20555;-71
2022/09/27 09:15:27;;;;;;;0.32;0.32;;;12.10;99.90;;;;;;4959571;28;20210;-72
2022/09/27 09:18:22;;;;;;;0.70;0.70;;;12.10;99.90;;;;;;4965580;28;20669;-72
2022/09/27 09:20:57;;;;;;;0.63;0.50;;;12.10;99.90;;;;;;4969658;28;20491;-72
2022/09/27 09:23:50;;;;;;;0.40;0.40;;;12.10;99.90;;;;;;4967518;28;20494;-72
2022/09/27 09:26:25;;;;;;;0.68;0.68;;;12.10;99.90;;;;;;4964366;28;20211;-71
2022/09/27 09:29:05;;;;;;;0.40;0.40;;;12.20;99.90;;;;;;4965854;28;20217;-71
2022/09/27 09:31:40;;;;;;;0.52;0.52;;;12.20;99.90;;;;;;4974120;28;20717;-71
2022/09/27 09:34:14;;;;;;;0.75;0.75;;;12.20;99.90;;;;;;4969824;28;20233;-71
2022/09/27 09:36:44;;;;;;;0.43;0.43;;;12.10;99.90;;;;;;4957759;28;20660;-71
2022/09/27 09:39:17;;;;;;;2.38;0.50;;;12.20;99.90;;;;;;4972947;28;20461;-72
2022/09/27 09:41:54;;;;;;;1.37;1.27;;;12.30;99.90;;;;;;4957488;28;20232;-71
2022/09/27 09:44:26;;;;;;;0.60;0.60;;;12.40;99.90;;;;;;4965220;28;20466;-71
2022/09/27 09:46:55;;;;;;;0.60;0.60;;;12.40;99.90;;;;;;4956927;28;20210;-72
2022/09/27 09:49:27;;;;;;;0.43;0.43;;;12.50;99.90;;;;;;4970091;28;20466;-74
2022/09/27 09:51:57;;;;;;;0.50;0.50;;;12.50;99.90;;;;;;4972861;28;20486;-74
2022/09/27 09:54:30;;;;;;;0.63;0.63;;;12.60;99.90;;;;;;4962292;28;20566;-73
2022/09/27 09:57:02;;;;;;;1.37;1.20;;;12.60;99.90;;;;;;4959193;28;20521;-71
2022/09/27 09:59:34;;;;;;;0.40;0.40;;;12.70;99.90;;;;;;4958216;28;20477;-72
2022/09/27 10:02:16;;;;;;;0.50;0.50;;;12.70;99.90;;;;;;4959541;28;20498;-71
2022/09/27 10:04:43;;;;;;;0.83;0.63;;;12.70;99.90;;;;;;4965877;28;20456;-71
2022/09/27 10:07:10;;;;;;;1.07;1.03;;;12.80;99.90;;;;;;4968781;28;20472;-71
2022/09/27 10:09:39;;;;;;;1.27;1.27;;;12.80;99.90;;;;;;4957418;28;20472;-73
2022/09/27 10:12:06;;;;;;;1.90;1.47;;;12.80;99.90;;;;;;4970700;28;20482;-73
2022/09/27 10:14:33;;;;;;;1.60;1.50;;;12.80;99.90;;;;;;4959512;28;20463;-72
2022/09/27 10:17:04;;;;;;;1.40;1.30;;;12.90;99.90;;;;;;4962830;28;20474;-72
2022/09/27 10:19:33;;;;;;;1.33;1.20;;;13.00;99.90;;;;;;4971169;28;20459;-72
2022/09/27 10:22:02;;;;;;;0.70;0.70;;;13.10;99.90;;;;;;4950492;28;20490;-73
2022/09/27 10:24:29;;;;;;;1.10;1.10;;;13.30;99.90;;;;;;4959599;28;20550;-73
2022/09/27 10:27:00;;;;;;;1.13;1.13;;;13.40;99.90;;;;;;4986367;28;20475;-72
2022/09/27 10:29:31;;;;;;;1.10;1.10;;;13.50;99.90;;;;;;4964449;28;20470;-73
2022/09/27 10:31:59;;;;;;;1.30;1.27;;;13.70;99.90;;;;;;4969541;28;20483;-73
2022/09/27 10:34:31;;;;;;;1.53;1.53;;;13.80;99.90;;;;;;4962216;28;20471;-72
2022/09/27 10:37:17;;;;;;;1.23;0.87;;;13.80;99.90;;;;;;4962654;28;20972;-72
2022/09/27 10:39:45;;;;;;;1.60;1.53;;;13.80;99.90;;;;;;4966063;28;20463;-71
2022/09/27 10:42:32;;;;;;;0.97;0.80;;;13.90;99.90;;;;;;4962771;28;20514;-71
2022/09/27 10:45:19;;;;;;;8.50;2.23;;;14.00;99.90;;;;;;4968941;28;20471;-71
2022/09/27 10:47:46;;;;;;;1.17;1.17;;;14.00;99.90;;;;;;4955572;28;20502;-72
2022/09/27 10:50:20;;;;;;;1.23;1.23;;;14.00;99.90;;;;;;4966200;28;20474;-73
2022/09/27 10:52:47;;;;;;;1.23;1.23;;;13.90;99.90;;;;;;4969401;28;20472;-72
2022/09/27 10:55:21;;;;;;;0.80;0.80;;;13.80;99.90;;;;;;4969879;28;20469;-70
2022/09/27 10:57:52;;;;;;;0.80;0.80;;;13.80;99.90;;;;;;4983592;23;20504;-72
2022/09/27 11:00:24;;;;;;;0.83;0.83;;;13.70;99.90;;;;;;4973836;28;20583;-69
2022/09/27 11:02:54;;;;;;;0.70;0.70;;;13.80;99.90;;;;;;4968041;28;20955;-69
2022/09/27 11:05:32;;;;;;;0.80;0.80;;;13.80;99.90;;;;;;4969309;28;20471;-69
2022/09/27 11:08:02;;;;;;;1.07;1.07;;;13.70;99.90;;;;;;4965333;28;21088;-69
2022/09/27 11:10:31;;;;;;;0.47;0.47;;;13.70;99.90;;;;;;4963263;28;20920;-70
2022/09/27 11:13:23;;;;;;;0.73;0.73;;;13.80;99.90;;;;;;4976676;28;20910;-70
2022/09/27 11:16:15;;;;;;;0.83;0.83;;;14.00;99.90;;;;;;4957461;28;20466;-70
2022/09/27 11:18:54;;;;;;;0.70;0.70;;;13.90;99.90;;;;;;4964920;28;20489;-71
2022/09/27 11:21:33;;;;;;;0.77;0.77;;;13.90;99.90;;;;;;4971120;28;20478;-70
2022/09/27 11:24:17;;;;;;;1.10;0.83;;;13.90;99.90;;;;;;4964294;28;20486;-72
2022/09/27 11:26:56;;;;;;;0.57;0.57;;;13.60;99.90;;;;;;4977359;28;20478;-70
2022/09/27 11:29:31;;;;;;;0.80;0.80;;;13.40;99.90;;;;;;4968891;28;20555;-70
2022/09/27 11:32:13;;;;;;;0.60;0.60;;;13.20;99.90;;;;;;4975624;28;20839;-71
2022/09/27 11:34:53;;;;;;;0.60;0.50;;;13.10;99.90;;;;;;4967909;28;20480;-70
2022/09/27 11:37:31;;;;;;;1.63;1.50;;;13.10;99.90;;;;;;4984458;28;20487;-70
2022/09/27 11:40:10;;;;;;;0.80;0.80;;;13.10;99.90;;;;;;4975234;28;20498;-71
2022/09/27 11:43:17;;;;;;;0.63;0.60;;;13.10;99.90;;;;;;4974846;28;20465;-71
2022/09/27 11:45:54;;;;;;;1.60;0.77;;;13.10;99.90;;;;;;4982261;28;20469;-72
2022/09/27 11:48:51;;;;;;;0.70;0.70;;;13.10;99.90;;;;;;4992212;28;20473;-71
2022/09/27 11:51:38;;;;;;;0.93;0.93;;;13.10;99.90;;;;;;4973873;28;20613;-70
2022/09/27 11:54:17;;;;;;;0.77;0.73;;;13.10;99.90;;;;;;4986704;28;20466;-70
2022/09/27 11:56:50;;;;;;;0.67;0.67;;;13.10;99.90;;;;;;4976076;28;20468;-70
2022/09/27 11:59:37;;;;;;;2.00;0.77;;;13.20;99.90;;;;;;4974036;28;20560;-71
2022/09/27 12:02:19;;;;;;;0.80;0.80;;;13.10;99.90;;;;;;4987091;28;20464;-70
2022/09/27 12:05:06;;;;;;;0.70;0.70;;;13.20;99.90;;;;;;4989726;28;20481;-70
2022/09/27 12:07:39;;;;;;;0.70;0.70;;;13.20;99.90;;;;;;4972076;28;20490;-69
2022/09/27 12:10:12;;;;;;;2.13;0.90;;;13.40;99.90;;;;;;4981246;28;20800;-70
2022/09/27 12:12:43;;;;;;;1.10;1.10;;;13.50;99.90;;;;;;4993579;28;20580;-69
2022/09/27 12:15:16;;;;;;;1.07;1.07;;;13.60;99.90;;;;;;4982226;28;20481;-70
2022/09/27 12:17:48;;;;;;;0.70;0.70;;;13.60;99.90;;;;;;4983324;28;20484;-70
2022/09/27 12:20:21;;;;;;;0.40;0.40;;;13.50;99.90;;;;;;4971766;28;20808;-69
2022/09/27 12:22:55;;;;;;;0.50;0.50;;;13.20;99.90;;;;;;4973824;28;20489;-69
2022/09/27 12:25:26;;;;;;;0.43;0.43;;;12.90;99.90;;;;;;4982132;28;20500;-70
2022/09/27 12:27:57;;;;;;;0.60;0.60;;;12.70;99.90;;;;;;4977113;28;20489;-70
2022/09/27 12:30:24;;;;;;;0.40;0.40;;;12.40;99.90;;;;;;4969567;28;20475;-70
2022/09/27 12:33:01;;;;;;;0.73;0.73;;;12.30;99.90;;;;;;4961470;28;20216;-70
2022/09/27 12:35:29;;;;;;;0.82;0.82;;;12.30;99.90;;;;;;4977386;28;20217;-70
2022/09/27 12:38:01;;;;;;;1.13;1.13;;;12.30;99.90;;;;;;4974891;28;20234;-71
2022/09/27 12:40:31;;;;;;;1.02;1.02;;;12.40;99.90;;;;;;4978126;28;20210;-70
2022/09/27 12:43:04;;;;;;;0.73;0.73;;;12.40;99.90;;;;;;4978994;28;20224;-69
2022/09/27 12:45:41;;;;;;;1.27;1.17;;;12.50;99.90;;;;;;4970130;28;20472;-70
2022/09/27 12:48:19;;;;;;;1.00;1.00;;;12.50;99.90;;;;;;4975475;28;20496;-71
2022/09/27 12:50:50;;;;;;;1.33;1.33;;;12.50;99.90;;;;;;4972060;28;20472;-71
2022/09/27 12:53:22;;;;;;;1.37;1.37;;;12.60;99.90;;;;;;4965689;28;20470;-70
2022/09/27 12:56:09;;;;;;;0.97;0.97;;;12.70;99.90;;;;;;4981659;28;20480;-70
2022/09/27 12:58:58;;;;;;;1.10;1.10;;;12.90;99.90;;;;;;4979391;28;20501;-70
2022/09/27 13:01:48;;;;;;;1.60;1.50;;;13.10;99.90;;;;;;4968258;28;20963;-71
2022/09/27 13:04:31;;;;;;;1.10;1.10;;;13.30;99.90;;;;;;4975996;28;20595;-71
2022/09/27 13:07:12;;;;;;;1.70;1.70;;;13.30;99.90;;;;;;4975240;28;20935;-71
2022/09/27 13:10:05;;;;;;;1.93;1.83;;;13.30;99.90;;;;;;4966778;28;20573;-70
2022/09/27 13:12:33;;;;;;;0.90;0.90;;;13.40;99.90;;;;;;4975351;28;20477;-70
2022/09/27 13:15:05;;;;;;;1.00;1.00;;;13.50;99.90;;;;;;4970178;28;20549;-70
2022/09/27 13:17:34;;;;;;;0.80;0.80;;;13.50;99.90;;;;;;4972720;28;20988;-70
2022/09/27 13:20:48;;;;;;;0.63;0.63;;;13.50;99.90;;;;;;4980091;28;20956;-71
2022/09/27 13:24:00;;;;;;;0.73;0.73;;;13.50;99.90;;;;;;4956132;28;20855;-70
2022/09/27 13:26:47;;;;;;;0.70;0.70;;;13.50;99.90;;;;;;4977451;28;21003;-71
2022/09/27 13:29:32;;;;;;;0.67;0.67;;;13.40;99.90;;;;;;4974334;28;20532;-71
2022/09/27 13:32:25;;;;;;;0.80;0.80;;;13.30;99.90;;;;;;4967286;28;20466;-70
2022/09/27 13:34:53;;;;;;;2.50;0.83;;;13.30;99.90;;;;;;4961186;28;20464;-71
2022/09/27 13:37:54;;;;;;;1.00;1.00;;;13.20;99.90;;;;;;4964620;28;20545;-70
2022/09/27 13:40:27;;;;;;;1.23;1.23;;;13.10;99.90;;;;;;4977884;28;20485;-71
2022/09/27 13:43:20;;;;;;;1.37;0.93;;;13.00;99.90;;;;;;4970032;28;20851;-71
2022/09/27 13:45:53;;;;;;;0.97;0.97;;;12.90;99.90;;;;;;4972998;28;20746;-71
2022/09/27 13:48:26;;;;;;;0.97;0.97;;;12.90;99.90;;;;;;4974199;28;20504;-71
2022/09/27 13:50:57;;;;;;;1.10;1.10;;;12.90;99.90;;;;;;4978362;28;20809;-71
2022/09/27 13:53:31;;;;;;;1.03;1.03;;;12.90;99.90;;;;;;4965532;28;20476;-71
2022/09/27 13:55:58;;;;;;;1.00;1.00;;;12.80;99.90;;;;;;4980382;28;20451;-71
2022/09/27 13:58:35;;;;;;;1.00;1.00;;;12.80;99.90;;;;;;4966482;28;20528;-70
2022/09/27 14:01:09;;;;;;;0.65;0.65;;;12.80;99.90;;;;;;4971055;28;20474;-70
2022/09/27 14:03:37;;;;;;;1.30;1.30;;;12.80;99.90;;;;;;4972663;28;20215;-70
2022/09/27 14:06:07;;;;;;;2.50;1.53;;;12.80;99.90;;;;;;4975132;28;20870;-70
2022/09/27 14:08:40;;;;;;;2.87;2.77;;;12.90;99.90;;;;;;4967492;28;20576;-70
2022/09/27 14:11:13;;;;;;;1.87;1.87;;;12.90;99.90;;;;;;4970488;28;20491;-70
2022/09/27 14:13:42;;;;;;;1.65;1.65;;;12.90;99.90;;;;;;4975325;28;20772;-70
2022/09/27 14:16:14;;;;;;;0.70;0.70;;;12.80;99.90;;;;;;4975286;28;20211;-70
2022/09/27 14:18:49;;;;;;;4.27;1.10;;;12.80;99.90;;;;;;4972773;28;20570;-70
2022/09/27 14:21:29;;;;;;;1.47;1.47;;;12.80;99.90;;;;;;4959812;28;20469;-69
2022/09/27 14:24:21;;;;;;;1.10;1.10;;;12.80;99.90;;;;;;4977891;28;20488;-69
2022/09/27 14:26:48;;;;;;;0.70;0.70;;;12.80;99.90;;;;;;4973692;28;20470;-71
2022/09/27 14:29:19;;;;;;;1.50;1.40;;;12.70;99.90;;;;;;4974105;28;20460;-69
2022/09/27 14:31:48;;;;;;;0.87;0.87;;;12.60;99.90;;;;;;4972309;28;20476;-71
2022/09/27 14:34:15;;;;;;;0.75;0.75;;;12.60;99.90;;;;;;4968646;28;20466;-72
2022/09/27 14:39:32;;;;;;;1.55;1.55;;;12.50;99.90;;;;;;4989071;28;20200;-73
2022/09/27 14:41:59;;;;;;;1.20;1.20;;;12.40;99.90;;;;;;4968865;28;20229;-72
2022/09/27 14:44:26;;;;;;;1.73;0.90;;;12.40;99.90;;;;;;4978904;28;20327;-71
2022/09/27 14:47:09;;;;;;;1.30;1.20;;;12.40;99.90;;;;;;4970113;28;20206;-71
2022/09/27 14:49:35;;;;;;;1.80;1.70;;;12.40;99.90;;;;;;4965069;28;21115;-70
2022/09/27 14:52:02;;;;;;;1.40;1.00;;;12.30;99.90;;;;;;4977888;28;20650;-71
2022/09/27 14:54:30;;;;;;;0.90;0.90;;;12.30;99.90;;;;;;4974994;28;20211;-70
2022/09/27 14:56:59;;;;;;;1.30;1.00;;;12.30;99.90;;;;;;4970024;28;20211;-71
2022/09/27 14:59:29;;;;;;;1.30;1.30;;;12.20;99.90;;;;;;4975942;28;20269;-70
2022/09/27 15:01:59;;;;;;;1.67;1.67;;;12.20;99.90;;;;;;4968247;28;20211;-71
2022/09/27 15:04:27;;;;;;;1.23;1.17;;;12.20;99.90;;;;;;4970789;28;20229;-71
2022/09/27 15:06:55;;;;;;;0.98;0.98;;;12.20;99.90;;;;;;4990968;28;20213;-71
2022/09/27 15:09:22;;;;;;;1.23;1.00;;;12.10;99.90;;;;;;4972016;28;20210;-71
2022/09/27 15:11:57;;;;;;;1.23;1.17;;;12.10;99.90;;;;;;4969348;28;20221;-71
2022/09/27 15:14:28;;;;;;;1.08;1.05;;;12.10;99.90;;;;;;4971997;28;20327;-71
2022/09/27 15:17:00;;;;;;;0.85;0.85;;;12.00;99.90;;;;;;4964379;28;20207;-73
2022/09/27 15:19:29;;;;;;;2.28;1.02;;;12.00;99.90;;;;;;4965786;28;20680;-73
2022/09/27 15:21:57;;;;;;;0.77;0.77;;;12.00;99.90;;;;;;4966582;28;20215;-71
2022/09/27 15:24:37;;;;;;;3.90;1.17;;;12.00;99.90;;;;;;4965579;28;20258;-73
2022/09/27 15:27:13;;;;;;;1.00;1.00;;;12.00;99.90;;;;;;4971356;28;20318;-71
2022/09/27 15:29:40;;;;;;;2.42;2.33;;;12.00;99.90;;;;;;4966086;28;20267;-71
2022/09/27 15:32:15;;;;;;;0.80;0.80;;;12.00;99.90;;;;;;4972759;28;20668;-71
2022/09/27 15:34:42;;;;;;;4.13;1.50;;;12.00;99.90;;;;;;4963447;28;20212;-70
2022/09/27 15:37:26;;;;;;;0.85;0.85;;;12.00;99.90;;;;;;4983750;28;20572;-70
2022/09/27 15:39:52;;;;;;;1.00;1.00;;;12.10;99.90;;;;;;4973522;28;20743;-71
2022/09/27 15:42:22;;;;;;;1.55;1.45;;;12.10;99.90;;;;;;4983951;28;20480;-71
2022/09/27 15:44:50;;;;;;;2.17;2.08;;;12.10;99.90;;;;;;4974903;28;20233;-71
2022/09/27 15:47:39;;;;;;;1.58;1.55;;;12.10;99.90;;;;;;4976756;28;20225;-68
2022/09/27 15:50:32;;;;;;;1.85;1.35;;;12.10;99.90;;;;;;4984102;28;20217;-72
2022/09/27 15:53:01;;;;;;;1.95;1.90;;;12.10;99.90;;;;;;4970898;28;20214;-72
2022/09/27 15:55:29;;;;;;;3.65;1.75;;;12.10;99.90;;;;;;4990476;28;20632;-71
2022/09/27 15:58:00;;;;;;;1.65;1.58;;;12.10;99.90;;;;;;4970413;28;20602;-73
2022/09/27 16:00:28;;;;;;;1.92;1.83;;;12.00;99.90;;;;;;4978762;28;20207;-72
2022/09/27 16:02:55;;;;;;;2.22;1.55;;;12.00;99.90;;;;;;4975146;28;20654;-72
2022/09/27 16:05:22;;;;;;;2.33;1.83;;;12.00;99.90;;;;;;4976106;28;20611;-72
2022/09/27 16:07:49;;;;;;;1.60;1.40;;;12.00;99.90;;;;;;4971488;28;20332;-72
2022/09/27 16:10:18;;;;;;;1.80;1.80;;;11.90;99.90;;;;;;4973032;28;20241;-72
2022/09/27 16:12:45;;;;;;;1.20;1.20;;;12.00;99.90;;;;;;4972004;28;20230;-72
2022/09/27 16:15:14;;;;;;;1.60;1.60;;;11.90;99.90;;;;;;4971974;28;20211;-71
2022/09/27 16:17:42;;;;;;;1.40;1.40;;;11.90;99.90;;;;;;4969697;28;20235;-71
2022/09/27 16:20:17;;;;;;;1.42;1.40;;;11.90;99.90;;;;;;4974206;28;20216;-73
2022/09/27 16:22:44;;;;;;;1.85;1.48;;;11.90;99.90;;;;;;4980373;28;20264;-72
2022/09/27 16:25:11;;;;;;;3.30;2.90;;;11.90;99.90;;;;;;4986504;28;20239;-72
2022/09/27 16:27:37;;;;;;;2.40;2.30;;;11.80;99.90;;;;;;4973880;28;20234;-72
2022/09/27 16:30:05;;;;;;;1.52;1.52;;;11.80;99.90;;;;;;4973814;28;20237;-72
2022/09/27 16:32:33;;;;;;;1.25;1.17;;;11.80;99.90;;;;;;4982014;28;20215;-72
2022/09/27 16:34:59;;;;;;;2.60;2.03;;;11.80;99.90;;;;;;4974784;28;20215;-72
2022/09/27 16:37:26;;;;;;;2.58;2.45;;;11.80;99.90;;;;;;4983764;28;20658;-72
2022/09/27 16:39:53;;;;;;;2.10;2.00;;;11.80;99.90;;;;;;4974877;28;20283;-72
2022/09/27 16:42:20;;;;;;;1.50;1.50;;;11.80;99.90;;;;;;4975436;28;20211;-72
2022/09/27 16:44:49;;;;;;;2.30;2.20;;;11.70;99.90;;;;;;4977363;28;20230;-72
2022/09/27 16:47:16;;;;;;;4.65;1.70;;;11.70;99.90;;;;;;4995491;28;20226;-72
2022/09/27 16:52:31;;;;;;;3.10;3.00;;;11.70;99.90;;;;;;4973482;28;20217;-72
2022/09/27 16:54:58;;;;;;;1.63;1.63;;;11.70;99.90;;;;;;4973022;28;20200;-72
2022/09/27 16:57:27;;;;;;;1.58;1.58;;;11.70;99.90;;;;;;4964413;28;20238;-72
2022/09/27 16:59:55;;;;;;;0.88;0.88;;;11.70;99.90;;;;;;4970857;28;20213;-71
2022/09/27 17:02:22;;;;;;;1.52;1.15;;;11.70;99.90;;;;;;4975654;28;20281;-72
2022/09/27 17:04:50;;;;;;;1.23;1.13;;;11.70;99.90;;;;;;4969206;28;20231;-72
2022/09/27 17:07:17;;;;;;;1.52;1.42;;;11.70;99.90;;;;;;4972428;28;20240;-71
2022/09/27 17:09:44;;;;;;;0.93;0.93;;;11.70;99.90;;;;;;4970069;28;20205;-72
2022/09/27 17:12:12;;;;;;;1.40;1.30;;;11.70;99.90;;;;;;4965494;28;20223;-72
2022/09/27 17:14:38;;;;;;;1.42;1.33;;;11.60;99.90;;;;;;4968136;28;20199;-71
2022/09/27 17:17:06;;;;;;;1.48;1.02;;;11.60;99.90;;;;;;4969053;28;20219;-72
2022/09/27 17:19:33;;;;;;;1.77;0.88;;;11.60;99.90;;;;;;4964382;28;20221;-72
2022/09/27 17:22:01;;;;;;;1.00;1.00;;;11.60;99.90;;;;;;4982203;28;20256;-71
2022/09/27 17:24:28;;;;;;;4.68;1.67;;;11.50;99.90;;;;;;4977401;28;20241;-72